Time;durP1;ratioP1;P1;durP2;ratioP2;P2;SDS_P1;SDS_P2;PMS_P1;PMS_P2;Temp;Humidity;BMP_temperature;BMP_pressure;BME280_temperature;BME280_humidity;BME280_pressure;Samples;Min_cycle;Max_cycle;Signal;HPM_P1;HPM_P2
2021/04/18 00:01:57;;;;;;;60.47;7.32;;;4.50;1.00;;;;;;5132067;27;20205;-68
2021/04/18 00:04:23;;;;;;;59.85;7.40;;;4.40;1.00;;;;;;5132444;27;20205;-68
2021/04/18 00:06:50;;;;;;;60.83;7.28;;;4.40;1.00;;;;;;5132670;27;20235;-68
2021/04/18 00:09:16;;;;;;;61.33;7.60;;;4.40;1.00;;;;;;5132247;27;20302;-68
2021/04/18 00:11:42;;;;;;;59.75;7.10;;;4.40;1.00;;;;;;5131544;27;20207;-68
2021/04/18 00:14:09;;;;;;;60.28;7.50;;;4.40;1.00;;;;;;5131961;27;20230;-68
2021/04/18 00:16:37;;;;;;;60.22;7.25;;;4.40;1.00;;;;;;5132039;27;20203;-68
2021/04/18 00:19:05;;;;;;;61.53;7.75;;;4.30;1.00;;;;;;5133374;27;20341;-68
2021/04/18 00:21:31;;;;;;;59.42;7.43;;;4.30;1.00;;;;;;5135779;27;20319;-68
2021/04/18 00:23:58;;;;;;;62.28;8.60;;;4.30;1.00;;;;;;5135727;27;20298;-68
2021/04/18 00:26:25;;;;;;;62.58;8.00;;;4.20;1.00;;;;;;5136056;27;20251;-68
2021/04/18 00:28:51;;;;;;;60.35;7.75;;;4.20;1.00;;;;;;5135938;27;20662;-68
2021/04/18 00:31:18;;;;;;;60.03;7.57;;;4.10;1.00;;;;;;5134589;27;20667;-68
2021/04/18 00:33:45;;;;;;;60.10;7.30;;;4.00;1.00;;;;;;5135252;27;20206;-68
2021/04/18 00:36:11;;;;;;;59.88;7.45;;;4.00;1.00;;;;;;5135574;27;20210;-68
2021/04/18 00:38:38;;;;;;;59.72;7.43;;;4.00;1.00;;;;;;5135521;27;20249;-68
2021/04/18 00:41:04;;;;;;;61.00;8.45;;;3.90;1.00;;;;;;5135397;27;20223;-68
2021/04/18 00:43:31;;;;;;;60.75;7.60;;;3.90;1.00;;;;;;5135481;27;20238;-68
2021/04/18 00:45:57;;;;;;;60.28;7.53;;;3.90;1.00;;;;;;5135540;27;20285;-68
2021/04/18 00:48:23;;;;;;;61.63;8.07;;;3.90;1.00;;;;;;5135212;27;20203;-68
2021/04/18 00:50:50;;;;;;;60.78;8.48;;;3.90;1.00;;;;;;5135868;27;20722;-68
2021/04/18 00:53:17;;;;;;;59.83;8.27;;;3.90;1.00;;;;;;5135752;27;20207;-68
2021/04/18 00:55:44;;;;;;;64.25;11.05;;;3.90;1.00;;;;;;5135756;27;20289;-68
2021/04/18 00:58:12;;;;;;;61.22;8.40;;;4.00;1.00;;;;;;5135655;27;20298;-68
2021/04/18 01:00:38;;;;;;;61.58;8.93;;;4.00;1.00;;;;;;5135937;27;20258;-68
2021/04/18 01:03:06;;;;;;;61.25;8.23;;;4.00;1.00;;;;;;5134581;27;20207;-68
2021/04/18 01:05:32;;;;;;;62.92;10.00;;;4.00;1.00;;;;;;5135117;27;20206;-68
2021/04/18 01:08:00;;;;;;;63.20;9.02;;;4.00;1.00;;;;;;5135262;27;20770;-68
2021/04/18 01:10:26;;;;;;;61.58;8.50;;;4.00;1.00;;;;;;5135122;27;20305;-68
2021/04/18 01:12:53;;;;;;;60.92;8.05;;;4.00;1.00;;;;;;5135487;27;20230;-68
2021/04/18 01:15:19;;;;;;;61.83;9.25;;;4.10;1.00;;;;;;5134799;27;20294;-68
2021/04/18 01:17:46;;;;;;;62.83;9.52;;;4.10;1.00;;;;;;5134634;27;20731;-68
2021/04/18 01:20:16;;;;;;;62.35;8.85;;;4.10;1.00;;;;;;5134741;27;20327;-68
2021/04/18 01:22:44;;;;;;;61.65;9.05;;;4.10;1.00;;;;;;5134631;27;20241;-68
2021/04/18 01:25:12;;;;;;;62.50;9.15;;;4.10;1.00;;;;;;5135128;27;20289;-68
2021/04/18 01:27:42;;;;;;;62.10;8.90;;;4.10;1.00;;;;;;5135170;27;20697;-68
2021/04/18 01:30:11;;;;;;;60.97;8.70;;;4.10;1.00;;;;;;5133825;27;20318;-67
2021/04/18 01:32:39;;;;;;;61.78;9.25;;;4.20;1.00;;;;;;5133827;27;20667;-67
2021/04/18 01:35:06;;;;;;;63.13;10.23;;;4.20;1.00;;;;;;5134402;27;20290;-67
2021/04/18 01:37:33;;;;;;;61.17;9.52;;;4.20;1.00;;;;;;5134852;27;20211;-67
2021/04/18 01:40:02;;;;;;;62.45;9.43;;;4.20;1.00;;;;;;5134660;27;20364;-67
2021/04/18 01:42:37;;;;;;;61.47;9.82;;;4.20;1.00;;;;;;5134329;27;20301;-67
2021/04/18 01:45:04;;;;;;;63.95;10.63;;;4.30;1.00;;;;;;5134307;27;20245;-69
2021/04/18 01:47:31;;;;;;;62.35;8.80;;;4.30;1.00;;;;;;5134843;27;20295;-67
2021/04/18 01:49:57;;;;;;;63.42;10.60;;;4.30;1.00;;;;;;5134136;27;20227;-68
2021/04/18 01:52:25;;;;;;;61.50;9.30;;;4.30;1.00;;;;;;5134136;27;20453;-67
2021/04/18 01:54:51;;;;;;;64.70;9.70;;;4.30;1.00;;;;;;5134013;27;20298;-67
2021/04/18 01:57:19;;;;;;;62.53;10.50;;;4.30;1.00;;;;;;5134201;27;20238;-67
2021/04/18 01:59:46;;;;;;;61.10;9.40;;;4.30;1.00;;;;;;5134191;27;20313;-66
2021/04/18 02:02:13;;;;;;;63.15;10.35;;;4.30;1.00;;;;;;5133856;27;20550;-66
2021/04/18 02:04:40;;;;;;;63.58;10.65;;;4.30;1.00;;;;;;5133099;27;20213;-66
2021/04/18 02:07:07;;;;;;;63.25;10.80;;;4.30;1.00;;;;;;5133739;27;20199;-66
2021/04/18 02:09:36;;;;;;;61.80;9.38;;;4.30;1.00;;;;;;5133731;27;20306;-67
2021/04/18 02:12:05;;;;;;;63.72;11.10;;;4.30;1.00;;;;;;5133912;27;20718;-67
2021/04/18 02:14:33;;;;;;;63.25;10.60;;;4.30;1.00;;;;;;5133579;27;20210;-66
2021/04/18 02:17:00;;;;;;;64.18;11.25;;;4.30;1.00;;;;;;5133838;27;20230;-67
2021/04/18 02:19:27;;;;;;;64.05;10.70;;;4.30;1.00;;;;;;5133461;27;20226;-67
2021/04/18 02:21:53;;;;;;;63.03;11.15;;;4.30;1.00;;;;;;5133499;27;20418;-67
2021/04/18 02:24:20;;;;;;;62.95;10.77;;;4.30;1.00;;;;;;5133361;27;20294;-67
2021/04/18 02:26:46;;;;;;;64.63;11.25;;;4.20;1.00;;;;;;5133616;27;20205;-67
2021/04/18 02:29:13;;;;;;;63.65;11.20;;;4.20;1.00;;;;;;5133343;27;20310;-67
2021/04/18 02:31:40;;;;;;;63.47;10.50;;;4.20;1.00;;;;;;5133547;27;20666;-67
2021/04/18 02:34:07;;;;;;;63.28;9.90;;;4.20;1.00;;;;;;5133252;27;20214;-67
2021/04/18 02:36:33;;;;;;;62.78;10.10;;;4.20;1.00;;;;;;5131944;27;20290;-67
2021/04/18 02:38:59;;;;;;;61.55;9.65;;;4.20;1.00;;;;;;5132747;27;20299;-67
2021/04/18 02:41:26;;;;;;;62.38;9.93;;;4.20;1.00;;;;;;5132851;27;20631;-67
2021/04/18 02:43:52;;;;;;;62.33;10.13;;;4.20;1.00;;;;;;5133311;27;20187;-67
2021/04/18 02:46:19;;;;;;;61.20;10.20;;;4.20;1.00;;;;;;5132970;27;20315;-67
2021/04/18 02:48:46;;;;;;;62.78;10.38;;;4.20;1.00;;;;;;5132936;27;20313;-67
2021/04/18 02:51:13;;;;;;;63.50;10.80;;;4.20;1.00;;;;;;5132909;27;20203;-67
2021/04/18 02:53:39;;;;;;;62.03;9.23;;;4.20;1.00;;;;;;5132724;27;20207;-67
2021/04/18 02:56:06;;;;;;;64.45;10.50;;;4.20;1.00;;;;;;5133125;27;20260;-67
2021/04/18 02:58:32;;;;;;;63.30;10.60;;;4.20;1.00;;;;;;5132970;27;20213;-67
2021/04/18 03:00:59;;;;;;;62.72;10.95;;;4.20;1.00;;;;;;5132889;27;20258;-67
2021/04/18 03:03:25;;;;;;;62.47;10.15;;;4.20;1.00;;;;;;5132836;27;20608;-67
2021/04/18 03:05:52;;;;;;;63.15;11.18;;;4.20;1.00;;;;;;5132715;27;20293;-67
2021/04/18 03:08:18;;;;;;;63.53;11.23;;;4.20;1.00;;;;;;5131535;27;20298;-67
2021/04/18 03:10:45;;;;;;;62.90;10.32;;;4.20;1.00;;;;;;5132787;27;20242;-67
2021/04/18 03:13:12;;;;;;;63.03;10.27;;;4.20;1.00;;;;;;5133003;27;20206;-67
2021/04/18 03:15:38;;;;;;;63.60;10.52;;;4.20;1.00;;;;;;5133131;27;20309;-67
2021/04/18 03:18:05;;;;;;;62.80;9.60;;;4.20;1.00;;;;;;5132705;27;20294;-67
2021/04/18 03:20:31;;;;;;;64.68;11.55;;;4.20;1.00;;;;;;5132215;27;20225;-67
2021/04/18 03:22:59;;;;;;;63.10;10.40;;;4.30;1.00;;;;;;5132519;27;20198;-67
2021/04/18 03:25:25;;;;;;;62.70;10.27;;;4.20;1.00;;;;;;5133023;27;20231;-67
2021/04/18 03:27:51;;;;;;;63.33;11.20;;;4.20;1.00;;;;;;5133135;27;20202;-67
2021/04/18 03:30:18;;;;;;;64.72;12.13;;;4.20;1.00;;;;;;5132976;27;20277;-67
2021/04/18 03:32:45;;;;;;;65.13;11.05;;;4.20;1.00;;;;;;5132451;27;20297;-67
2021/04/18 03:35:12;;;;;;;64.05;11.07;;;4.30;1.00;;;;;;5132593;27;20234;-67
2021/04/18 03:37:38;;;;;;;65.90;12.25;;;4.20;1.00;;;;;;5132812;27;20225;-67
2021/04/18 03:40:07;;;;;;;63.08;10.40;;;4.30;1.00;;;;;;5131725;27;20313;-67
2021/04/18 03:42:33;;;;;;;66.28;11.85;;;4.30;1.00;;;;;;5132777;27;20294;-67
2021/04/18 03:45:00;;;;;;;63.80;11.05;;;4.30;1.00;;;;;;5132400;27;20294;-67
2021/04/18 03:47:26;;;;;;;65.40;12.05;;;4.30;1.00;;;;;;5132171;27;20293;-68
2021/04/18 03:49:52;;;;;;;65.32;12.32;;;4.30;1.00;;;;;;5132577;27;20828;-68
2021/04/18 03:52:19;;;;;;;64.15;10.85;;;4.30;1.00;;;;;;5132588;27;20320;-69
2021/04/18 03:54:45;;;;;;;64.63;11.95;;;4.30;1.00;;;;;;5135318;27;20244;-68
2021/04/18 03:57:12;;;;;;;64.55;11.88;;;4.30;1.00;;;;;;5136865;27;20234;-68
2021/04/18 03:59:38;;;;;;;65.28;12.15;;;4.30;1.00;;;;;;5136686;27;20608;-68
2021/04/18 04:02:05;;;;;;;66.55;12.85;;;4.40;1.00;;;;;;5136678;27;20642;-68
2021/04/18 04:04:31;;;;;;;64.30;12.75;;;4.40;1.00;;;;;;5137164;27;20637;-68
2021/04/18 04:06:58;;;;;;;65.03;12.90;;;4.40;1.00;;;;;;5136695;27;20302;-68
2021/04/18 04:09:24;;;;;;;65.15;12.10;;;4.40;1.00;;;;;;5135184;27;20321;-68
2021/04/18 04:11:51;;;;;;;63.45;10.80;;;4.40;1.00;;;;;;5135889;27;20682;-68
2021/04/18 04:14:18;;;;;;;65.03;12.27;;;4.40;1.00;;;;;;5136170;27;20643;-68
2021/04/18 04:16:44;;;;;;;66.18;12.90;;;4.40;1.00;;;;;;5136469;27;20241;-68
2021/04/18 04:19:10;;;;;;;64.07;11.38;;;4.40;1.00;;;;;;5136426;27;20639;-68
2021/04/18 04:21:37;;;;;;;63.33;10.80;;;4.30;1.00;;;;;;5136148;27;20255;-68
2021/04/18 04:24:04;;;;;;;64.75;11.40;;;4.30;1.00;;;;;;5135682;27;20718;-68
2021/04/18 04:26:30;;;;;;;66.43;12.75;;;4.30;1.00;;;;;;5135793;27;20199;-68
2021/04/18 04:28:57;;;;;;;64.07;11.73;;;4.30;1.00;;;;;;5135945;27;20317;-67
2021/04/18 04:31:24;;;;;;;65.18;13.05;;;4.30;1.00;;;;;;5135514;27;20230;-68
2021/04/18 04:33:50;;;;;;;66.00;12.75;;;4.40;1.00;;;;;;5135808;27;20209;-68
2021/04/18 04:36:17;;;;;;;66.45;12.75;;;4.40;1.00;;;;;;5135623;27;20341;-68
2021/04/18 04:38:43;;;;;;;67.65;13.52;;;4.40;1.00;;;;;;5135378;27;20325;-68
2021/04/18 04:41:09;;;;;;;66.07;13.43;;;4.40;1.00;;;;;;5134794;27;20222;-68
2021/04/18 04:43:36;;;;;;;66.80;12.80;;;4.40;1.00;;;;;;5135200;27;20286;-68
2021/04/18 04:46:02;;;;;;;65.38;11.88;;;4.40;1.00;;;;;;5135421;27;20234;-68
2021/04/18 04:48:29;;;;;;;66.43;13.55;;;4.40;1.00;;;;;;5135265;27;20203;-68
2021/04/18 04:50:56;;;;;;;64.15;11.32;;;4.40;1.00;;;;;;5135482;27;20287;-68
2021/04/18 04:53:22;;;;;;;65.78;12.82;;;4.50;1.00;;;;;;5135160;27;20857;-68
2021/04/18 04:55:48;;;;;;;65.88;12.68;;;4.40;1.00;;;;;;5135376;27;20243;-68
2021/04/18 04:58:15;;;;;;;66.57;12.48;;;4.50;1.00;;;;;;5135572;27;20206;-68
2021/04/18 05:00:41;;;;;;;67.47;13.80;;;4.50;1.00;;;;;;5134811;27;20227;-68
2021/04/18 05:03:09;;;;;;;69.90;13.10;;;4.50;1.00;;;;;;5135190;27;20213;-68
2021/04/18 05:05:36;;;;;;;66.22;13.43;;;4.50;1.00;;;;;;5134672;27;20804;-68
2021/04/18 05:08:02;;;;;;;66.55;12.65;;;4.50;1.00;;;;;;5135112;27;20251;-68
2021/04/18 05:10:28;;;;;;;65.05;12.40;;;4.60;1.00;;;;;;5134808;27;20313;-68
2021/04/18 05:12:55;;;;;;;62.20;10.15;;;4.60;1.00;;;;;;5134343;27;20230;-68
2021/04/18 05:15:22;;;;;;;63.90;11.35;;;4.50;1.00;;;;;;5134951;27;20590;-68
2021/04/18 05:17:49;;;;;;;64.63;11.30;;;4.50;1.00;;;;;;5135137;27;20207;-68
2021/04/18 05:20:16;;;;;;;66.85;10.32;;;4.50;1.00;;;;;;5134750;27;20225;-68
2021/04/18 05:22:44;;;;;;;64.68;10.93;;;4.50;1.00;;;;;;5134718;27;20198;-68
2021/04/18 05:25:11;;;;;;;64.70;11.48;;;4.50;1.00;;;;;;5134764;27;20206;-68
2021/04/18 05:27:38;;;;;;;63.60;11.60;;;4.50;1.00;;;;;;5134693;27;20242;-68
2021/04/18 05:30:06;;;;;;;63.85;11.25;;;4.50;1.00;;;;;;5134514;27;20305;-68
2021/04/18 05:32:33;;;;;;;66.00;11.45;;;4.50;1.00;;;;;;5134675;27;20293;-68
2021/04/18 05:34:59;;;;;;;63.90;11.55;;;4.60;1.00;;;;;;5134682;27;20302;-68
2021/04/18 05:37:25;;;;;;;63.47;11.32;;;4.60;1.00;;;;;;5134373;27;20596;-68
2021/04/18 05:39:53;;;;;;;64.93;11.98;;;4.60;1.00;;;;;;5134387;27;20456;-68
2021/04/18 05:42:19;;;;;;;67.13;12.85;;;4.60;1.00;;;;;;5134050;27;20297;-68
2021/04/18 05:44:46;;;;;;;66.28;12.70;;;4.70;1.00;;;;;;5133275;27;20615;-67
2021/04/18 05:47:12;;;;;;;64.50;12.00;;;4.70;1.00;;;;;;5134394;27;20203;-68
2021/04/18 05:49:38;;;;;;;66.07;12.85;;;4.80;1.00;;;;;;5134428;27;20313;-67
2021/04/18 05:52:05;;;;;;;65.18;12.45;;;4.80;1.00;;;;;;5134103;27;20294;-67
2021/04/18 05:54:32;;;;;;;64.50;11.43;;;4.80;1.00;;;;;;5134287;27;20243;-68
2021/04/18 05:56:59;;;;;;;65.45;12.43;;;4.90;1.00;;;;;;5134518;27;20302;-68
2021/04/18 05:59:25;;;;;;;64.47;11.15;;;4.90;1.00;;;;;;5134183;27;20254;-68
2021/04/18 06:01:52;;;;;;;64.90;11.65;;;4.90;1.00;;;;;;5133964;27;20746;-68
2021/04/18 06:04:18;;;;;;;63.17;10.55;;;5.00;1.00;;;;;;5134047;27;20682;-67
2021/04/18 06:06:44;;;;;;;65.70;11.65;;;5.00;1.00;;;;;;5134219;27;20207;-68
2021/04/18 06:09:10;;;;;;;65.07;11.43;;;5.00;1.00;;;;;;5133956;27;20497;-68
2021/04/18 06:11:37;;;;;;;66.43;12.02;;;5.00;1.00;;;;;;5133784;27;20234;-67
2021/04/18 06:14:04;;;;;;;66.15;12.18;;;5.00;1.00;;;;;;5132823;27;20199;-68
2021/04/18 06:16:30;;;;;;;64.25;11.27;;;5.10;1.00;;;;;;5133422;27;20286;-67
2021/04/18 06:18:57;;;;;;;66.35;12.38;;;5.20;1.00;;;;;;5133900;27;20365;-67
2021/04/18 06:21:23;;;;;;;64.60;11.75;;;5.20;1.00;;;;;;5133512;27;20313;-67
2021/04/18 06:23:49;;;;;;;64.32;12.02;;;5.30;1.00;;;;;;5133284;27;20298;-67
2021/04/18 06:26:16;;;;;;;63.53;10.95;;;5.40;1.00;;;;;;5133437;27;20294;-67
2021/04/18 06:28:42;;;;;;;64.00;10.88;;;5.40;1.00;;;;;;5133387;27;20265;-67
2021/04/18 06:31:09;;;;;;;64.80;11.10;;;5.50;1.00;;;;;;5133466;27;20294;-67
2021/04/18 06:33:36;;;;;;;64.20;11.25;;;5.50;1.00;;;;;;5133113;27;20799;-67
2021/04/18 06:36:03;;;;;;;64.43;10.82;;;5.50;1.00;;;;;;5133341;27;20603;-67
2021/04/18 06:38:29;;;;;;;63.97;11.68;;;5.60;1.00;;;;;;5132980;27;20305;-68
2021/04/18 06:40:55;;;;;;;65.35;10.88;;;5.70;1.00;;;;;;5133123;27;20770;-68
2021/04/18 06:43:23;;;;;;;63.38;10.20;;;5.70;1.00;;;;;;5132953;27;20733;-68
2021/04/18 06:45:50;;;;;;;63.78;10.05;;;5.80;1.00;;;;;;5132012;27;20199;-68
2021/04/18 06:48:18;;;;;;;65.72;12.05;;;5.90;1.00;;;;;;5132710;27;20401;-68
2021/04/18 06:50:45;;;;;;;66.28;12.10;;;5.90;1.00;;;;;;5132864;27;20234;-68
2021/04/18 06:53:11;;;;;;;63.75;10.13;;;6.00;1.00;;;;;;5132699;27;20255;-68
2021/04/18 06:55:38;;;;;;;65.75;10.88;;;6.10;1.00;;;;;;5133017;27;20436;-68
2021/04/18 06:58:04;;;;;;;63.85;11.00;;;6.20;1.00;;;;;;5132961;27;20242;-68
2021/04/18 07:00:31;;;;;;;65.22;10.70;;;6.30;1.00;;;;;;5132862;27;20309;-68
2021/04/18 07:03:10;;;;;;;62.85;9.55;;;6.50;1.00;;;;;;5132816;27;20242;-68
2021/04/18 07:05:43;;;;;;;64.63;10.27;;;6.60;1.00;;;;;;5132592;27;20209;-68
2021/04/18 07:08:19;;;;;;;63.45;10.90;;;6.80;1.00;;;;;;5132945;27;20295;-68
2021/04/18 07:10:46;;;;;;;62.65;9.93;;;6.90;1.00;;;;;;5132778;27;20223;-68
2021/04/18 07:13:16;;;;;;;63.75;9.82;;;7.00;1.00;;;;;;5133038;27;20614;-68
2021/04/18 07:15:43;;;;;;;62.60;9.80;;;7.00;1.00;;;;;;5132437;27;20203;-68
2021/04/18 07:18:14;;;;;;;62.20;9.18;;;7.10;1.00;;;;;;5131015;27;20293;-68
2021/04/18 07:20:52;;;;;;;63.70;10.57;;;7.20;1.00;;;;;;5132635;27;20322;-68
2021/04/18 07:23:27;;;;;;;62.92;10.30;;;7.20;1.00;;;;;;5132426;27;20707;-68
2021/04/18 07:25:55;;;;;;;66.32;11.43;;;7.20;1.00;;;;;;5132463;27;20286;-68
2021/04/18 07:28:23;;;;;;;66.10;11.05;;;7.20;1.00;;;;;;5132103;27;20596;-68
2021/04/18 07:30:54;;;;;;;65.25;11.60;;;7.10;1.00;;;;;;5132582;27;20250;-68
2021/04/18 07:33:21;;;;;;;63.15;10.02;;;7.00;1.00;;;;;;5132458;27;20207;-68
2021/04/18 07:35:49;;;;;;;67.50;11.77;;;7.10;1.00;;;;;;5132320;27;20751;-68
2021/04/18 07:38:27;;;;;;;66.15;11.68;;;7.10;1.00;;;;;;5132314;27;20206;-68
2021/04/18 07:40:55;;;;;;;66.28;12.05;;;7.10;1.00;;;;;;5132211;27;20224;-68
2021/04/18 07:43:22;;;;;;;66.30;11.98;;;7.00;1.00;;;;;;5132459;27;20230;-68
2021/04/18 07:45:50;;;;;;;66.28;11.93;;;7.00;1.00;;;;;;5132594;27;20234;-68
2021/04/18 07:48:18;;;;;;;68.90;11.40;;;6.90;1.00;;;;;;5132213;27;20294;-68
2021/04/18 07:50:48;;;;;;;66.20;11.50;;;6.90;1.00;;;;;;5132154;27;20224;-68
2021/04/18 07:53:16;;;;;;;64.35;10.43;;;6.90;1.00;;;;;;5132071;27;20298;-68
2021/04/18 07:55:43;;;;;;;65.43;10.50;;;7.00;1.00;;;;;;5132006;27;20298;-68
2021/04/18 07:58:10;;;;;;;63.70;10.48;;;6.90;1.00;;;;;;5132462;27;20636;-68
2021/04/18 08:00:37;;;;;;;63.47;10.10;;;6.90;1.00;;;;;;5131943;27;20228;-68
2021/04/18 08:03:05;;;;;;;62.90;10.02;;;7.00;1.00;;;;;;5132037;27;20239;-68
2021/04/18 08:05:33;;;;;;;65.40;10.32;;;7.10;1.00;;;;;;5132187;27;20290;-68
2021/04/18 08:08:01;;;;;;;63.15;9.38;;;7.20;1.00;;;;;;5131965;27;20200;-68
2021/04/18 08:10:31;;;;;;;64.43;9.60;;;7.20;1.00;;;;;;5132188;27;20225;-68
2021/04/18 08:13:07;;;;;;;66.97;10.20;;;7.30;1.00;;;;;;5132409;27;20455;-69
2021/04/18 08:15:36;;;;;;;63.08;9.45;;;7.40;1.00;;;;;;5132176;27;20619;-68
2021/04/18 08:18:04;;;;;;;68.55;10.50;;;7.50;1.00;;;;;;5132577;27;20218;-69
2021/04/18 08:20:33;;;;;;;65.17;11.20;;;7.60;1.00;;;;;;5131648;27;20315;-69
2021/04/18 08:23:04;;;;;;;63.60;9.77;;;7.70;1.00;;;;;;5132023;27;20449;-68
2021/04/18 08:25:31;;;;;;;63.10;9.53;;;7.90;1.00;;;;;;5132114;27;20758;-68
2021/04/18 08:28:04;;;;;;;65.07;10.57;;;8.00;1.00;;;;;;5131976;27;20450;-68
2021/04/18 08:30:51;;;;;;;62.37;9.73;;;8.10;1.00;;;;;;5131743;27;20465;-68
2021/04/18 08:33:46;;;;;;;64.20;9.60;;;8.10;1.00;;;;;;5131442;27;20455;-68
2021/04/18 08:36:14;;;;;;;62.40;9.23;;;8.10;1.00;;;;;;5131083;27;20534;-68
2021/04/18 08:38:41;;;;;;;63.87;8.80;;;8.10;1.00;;;;;;5131531;27;20515;-68
2021/04/18 08:41:12;;;;;;;61.27;8.60;;;8.20;1.00;;;;;;5134560;27;20602;-68
2021/04/18 08:43:40;;;;;;;62.37;9.20;;;8.30;1.00;;;;;;5135600;27;20831;-68
2021/04/18 08:46:07;;;;;;;64.53;8.40;;;8.30;1.00;;;;;;5135559;27;20908;-69
2021/04/18 08:48:33;;;;;;;62.50;7.63;;;8.40;1.00;;;;;;5135489;27;20453;-68
2021/04/18 08:51:01;;;;;;;61.67;8.40;;;8.60;1.00;;;;;;5135574;27;20526;-68
2021/04/18 08:53:29;;;;;;;61.17;7.70;;;8.70;1.00;;;;;;5135222;27;20554;-69
2021/04/18 08:55:58;;;;;;;61.70;8.17;;;8.70;1.00;;;;;;5135028;27;20530;-69
2021/04/18 08:58:35;;;;;;;63.27;7.73;;;8.80;1.00;;;;;;5135218;27;20451;-68
2021/04/18 09:01:07;;;;;;;60.47;7.03;;;8.90;1.00;;;;;;5135014;27;20570;-67
2021/04/18 09:03:34;;;;;;;63.87;8.27;;;9.00;1.00;;;;;;5134943;27;20946;-69
2021/04/18 09:06:09;;;;;;;60.87;7.57;;;9.10;1.00;;;;;;5135123;27;20443;-69
2021/04/18 09:08:49;;;;;;;61.50;8.67;;;9.20;1.00;;;;;;5134763;27;20475;-68
2021/04/18 09:11:16;;;;;;;61.07;7.57;;;9.10;1.00;;;;;;5135047;27;20446;-68
2021/04/18 09:13:56;;;;;;;63.27;8.50;;;9.10;1.00;;;;;;5134707;27;20943;-69
2021/04/18 09:16:26;;;;;;;61.07;7.70;;;9.10;1.00;;;;;;5134618;27;20528;-68
2021/04/18 09:18:53;;;;;;;61.90;8.20;;;9.30;1.00;;;;;;5134415;27;21042;-69
2021/04/18 09:21:21;;;;;;;61.67;8.53;;;9.40;1.00;;;;;;5124399;27;20491;-69
2021/04/18 09:24:00;;;;;;;62.50;7.80;;;9.60;1.00;;;;;;5126076;27;20476;-67
2021/04/18 09:26:27;;;;;;;61.27;7.90;;;9.90;1.00;;;;;;5134712;27;20526;-68
2021/04/18 09:29:08;;;;;;;61.07;8.17;;;10.10;1.00;;;;;;5134608;27;20517;-68
2021/04/18 09:31:35;;;;;;;60.70;7.17;;;10.20;1.00;;;;;;5134511;27;20570;-69
2021/04/18 09:34:04;;;;;;;60.07;6.80;;;10.50;1.00;;;;;;5134312;27;20484;-68
2021/04/18 09:36:31;;;;;;;64.20;8.10;;;10.60;1.00;;;;;;5134443;27;20456;-68
2021/04/18 09:38:59;;;;;;;65.10;8.20;;;10.70;1.00;;;;;;5134587;27;20469;-68
2021/04/18 09:41:26;;;;;;;63.63;8.83;;;10.80;1.00;;;;;;5134451;27;20471;-68
2021/04/18 09:43:58;;;;;;;62.17;8.00;;;10.90;1.00;;;;;;5133990;27;20944;-67
2021/04/18 09:46:24;;;;;;;61.90;8.17;;;11.10;1.00;;;;;;5134447;27;20456;-68
2021/04/18 09:48:59;;;;;;;60.57;7.30;;;11.10;1.00;;;;;;5128154;27;20551;-68
2021/04/18 09:51:25;;;;;;;64.03;7.80;;;11.20;1.00;;;;;;5130114;27;20572;-68
2021/04/18 09:54:03;;;;;;;62.30;8.00;;;11.10;1.00;;;;;;5117944;27;20448;-68
2021/04/18 09:56:29;;;;;;;62.57;7.67;;;11.10;1.00;;;;;;5134097;27;20532;-68
2021/04/18 09:58:56;;;;;;;62.47;8.13;;;11.00;1.00;;;;;;5133587;27;20461;-68
2021/04/18 10:01:24;;;;;;;65.77;7.97;;;11.00;1.00;;;;;;5134061;27;20482;-67
2021/04/18 10:03:50;;;;;;;61.67;7.60;;;11.10;1.00;;;;;;5133993;27;20518;-68
2021/04/18 10:06:18;;;;;;;62.00;8.50;;;11.40;1.00;;;;;;5134028;27;20483;-67
2021/04/18 10:08:54;;;;;;;63.40;9.57;;;11.50;1.00;;;;;;5133682;27;20463;-67
2021/04/18 10:11:21;;;;;;;61.47;7.90;;;11.80;1.00;;;;;;5134127;27;20441;-67
2021/04/18 10:13:51;;;;;;;61.73;8.37;;;12.00;1.00;;;;;;5133968;27;20456;-67
2021/04/18 10:16:19;;;;;;;62.20;8.40;;;12.10;1.00;;;;;;5133653;27;20484;-68
2021/04/18 10:19:07;;;;;;;60.80;7.97;;;12.10;1.00;;;;;;5133630;27;20601;-67
2021/04/18 10:21:34;;;;;;;61.63;8.37;;;11.90;1.00;;;;;;5133541;27;20566;-68
2021/04/18 10:24:01;;;;;;;63.10;8.00;;;12.00;1.00;;;;;;5133946;27;20531;-68
2021/04/18 10:26:28;;;;;;;63.10;8.80;;;12.10;1.00;;;;;;5133683;27;21079;-68
2021/04/18 10:28:56;;;;;;;60.87;8.40;;;12.20;1.00;;;;;;5133387;27;20469;-68
2021/04/18 10:31:24;;;;;;;61.80;8.93;;;12.20;1.00;;;;;;5133786;27;20441;-68
2021/04/18 10:33:51;;;;;;;60.47;7.40;;;12.30;1.00;;;;;;5131987;27;20540;-68
2021/04/18 10:36:17;;;;;;;61.93;8.60;;;12.40;1.00;;;;;;5133340;27;20535;-68
2021/04/18 10:38:44;;;;;;;62.00;8.20;;;12.70;1.00;;;;;;5133053;27;20562;-68
2021/04/18 10:41:11;;;;;;;63.60;9.00;;;13.10;1.00;;;;;;5133349;27;20974;-68
2021/04/18 10:43:37;;;;;;;63.80;8.33;;;13.30;1.00;;;;;;5133090;27;20546;-68
2021/04/18 10:46:05;;;;;;;63.23;8.00;;;13.40;1.00;;;;;;5133128;27;20472;-68
2021/04/18 10:48:31;;;;;;;60.77;8.00;;;13.60;1.00;;;;;;5132926;27;20480;-68
2021/04/18 10:50:57;;;;;;;61.23;8.17;;;13.80;1.00;;;;;;5133153;27;20448;-68
2021/04/18 10:53:24;;;;;;;61.27;8.33;;;13.90;1.00;;;;;;5133044;27;20597;-68
2021/04/18 10:55:51;;;;;;;60.97;8.27;;;13.80;1.00;;;;;;5133259;27;20570;-68
2021/04/18 10:58:17;;;;;;;62.57;7.13;;;13.80;1.00;;;;;;5132824;27;20468;-68
2021/04/18 11:00:44;;;;;;;61.40;8.70;;;13.50;1.00;;;;;;5132573;27;21047;-68
2021/04/18 11:03:11;;;;;;;61.23;8.70;;;13.30;1.00;;;;;;5132661;27;20440;-69
2021/04/18 11:05:37;;;;;;;62.70;9.03;;;13.20;1.00;;;;;;5131847;27;20501;-68
2021/04/18 11:08:04;;;;;;;63.13;9.33;;;13.20;1.00;;;;;;5132786;27;20484;-68
2021/04/18 11:10:30;;;;;;;67.80;14.43;;;13.10;1.00;;;;;;5132610;27;20539;-68
2021/04/18 11:12:57;;;;;;;63.40;8.93;;;13.00;1.00;;;;;;5132694;27;20578;-68
2021/04/18 11:15:24;;;;;;;61.37;8.50;;;13.00;1.00;;;;;;5133018;27;20536;-68
2021/04/18 11:17:50;;;;;;;64.03;9.73;;;13.20;1.00;;;;;;5132928;27;20452;-68
2021/04/18 11:20:18;;;;;;;61.57;8.50;;;13.30;1.00;;;;;;5132606;27;20964;-68
2021/04/18 11:22:44;;;;;;;62.00;8.30;;;13.20;1.00;;;;;;5132619;27;20471;-68
2021/04/18 11:25:13;;;;;;;60.30;7.50;;;13.10;1.00;;;;;;5132549;27;21054;-68
2021/04/18 11:27:40;;;;;;;62.50;8.57;;;13.00;1.00;;;;;;5132451;27;20444;-68
2021/04/18 11:30:11;;;;;;;60.83;7.77;;;12.90;1.00;;;;;;5132190;27;20988;-68
2021/04/18 11:32:37;;;;;;;61.77;7.40;;;13.00;1.00;;;;;;5132612;27;20448;-68
2021/04/18 11:35:05;;;;;;;62.60;9.00;;;13.10;1.00;;;;;;5125868;27;20477;-68
2021/04/18 11:37:31;;;;;;;61.70;8.60;;;13.10;1.00;;;;;;5120097;28;20479;-68
2021/04/18 11:39:57;;;;;;;61.17;7.80;;;13.10;1.00;;;;;;5132259;27;20474;-68
2021/04/18 11:42:24;;;;;;;60.70;7.30;;;13.10;1.00;;;;;;5132156;27;20532;-68
2021/04/18 11:44:50;;;;;;;62.03;7.53;;;13.00;1.00;;;;;;5132260;27;20523;-68
2021/04/18 11:47:18;;;;;;;61.03;7.03;;;12.90;1.00;;;;;;5132502;27;20500;-68
2021/04/18 11:49:45;;;;;;;63.97;8.00;;;12.70;1.00;;;;;;5132476;27;20478;-68
2021/04/18 11:52:12;;;;;;;60.87;7.83;;;12.70;1.00;;;;;;5132411;27;20532;-68
2021/04/18 11:54:39;;;;;;;63.43;8.53;;;12.80;1.00;;;;;;5132603;27;20448;-68
2021/04/18 11:57:07;;;;;;;62.47;8.97;;;12.80;1.00;;;;;;5131697;27;20440;-67
2021/04/18 11:59:33;;;;;;;61.50;8.20;;;12.90;1.00;;;;;;5132742;27;20468;-67
2021/04/18 12:01:59;;;;;;;61.60;8.10;;;13.00;1.00;;;;;;5132391;27;20610;-68
2021/04/18 12:04:27;;;;;;;64.47;9.40;;;13.20;1.00;;;;;;5132457;27;20531;-68
2021/04/18 12:06:53;;;;;;;61.00;8.17;;;13.30;1.00;;;;;;5132319;27;20900;-66
2021/04/18 12:09:19;;;;;;;61.80;8.47;;;13.30;1.00;;;;;;5132243;27;20542;-66
2021/04/18 12:11:46;;;;;;;60.10;7.17;;;13.30;1.00;;;;;;5130939;27;20992;-67
2021/04/18 12:14:12;;;;;;;63.07;9.37;;;13.30;1.00;;;;;;5132074;27;20445;-67
2021/04/18 12:16:38;;;;;;;60.90;8.13;;;13.40;1.00;;;;;;5136234;27;20482;-67
2021/04/18 12:19:05;;;;;;;61.47;8.23;;;13.50;1.00;;;;;;5135900;27;20495;-66
2021/04/18 12:21:32;;;;;;;61.80;7.70;;;13.50;1.00;;;;;;5135931;27;21047;-67
2021/04/18 12:23:59;;;;;;;61.33;7.83;;;13.40;1.00;;;;;;5135337;27;20531;-67
2021/04/18 12:26:25;;;;;;;60.57;7.40;;;13.40;1.00;;;;;;5135853;27;20536;-67
2021/04/18 12:28:53;;;;;;;61.40;7.47;;;13.40;1.00;;;;;;5135117;27;20555;-67
2021/04/18 12:31:19;;;;;;;62.50;8.00;;;13.50;1.00;;;;;;5136000;27;20952;-67
2021/04/18 12:33:46;;;;;;;62.10;8.30;;;13.70;1.00;;;;;;5135736;27;20940;-68
2021/04/18 12:36:12;;;;;;;60.70;7.73;;;13.90;1.00;;;;;;5135898;27;20535;-68
2021/04/18 12:38:40;;;;;;;64.60;8.37;;;14.00;1.00;;;;;;5135808;27;20475;-68
2021/04/18 12:41:07;;;;;;;62.40;7.50;;;14.10;1.00;;;;;;5136264;27;20564;-68
2021/04/18 12:43:34;;;;;;;60.70;6.90;;;14.20;1.00;;;;;;5136038;27;20911;-68
2021/04/18 12:46:01;;;;;;;58.80;6.70;;;14.20;1.00;;;;;;5135767;27;20857;-68
2021/04/18 12:48:28;;;;;;;59.60;6.83;;;14.10;1.00;;;;;;5135625;27;20540;-68
2021/04/18 12:50:54;;;;;;;59.77;6.17;;;14.00;1.00;;;;;;5135870;27;20450;-68
2021/04/18 12:53:20;;;;;;;59.90;7.33;;;13.90;1.00;;;;;;5135726;27;20488;-68